sensor_id;sensor_type;location;lat;lon;timestamp;pressure;altitude;pressure_sealevel;temperature;humidity
22653;BME280;11493;43.344;26.226;2022-07-29T00:01:08;99351.13;;;21.26;100.00
22653;BME280;11493;43.344;26.226;2022-07-29T00:03:46;99347.91;;;21.24;100.00
22653;BME280;11493;43.344;26.226;2022-07-29T00:06:18;99344.31;;;21.24;100.00
22653;BME280;11493;43.344;26.226;2022-07-29T00:08:55;99346.63;;;21.18;100.00
22653;BME280;11493;43.344;26.226;2022-07-29T00:11:23;99339.34;;;21.10;100.00
22653;BME280;11493;43.344;26.226;2022-07-29T00:13:50;99344.13;;;21.10;100.00
22653;BME280;11493;43.344;26.226;2022-07-29T00:16:17;99345.75;;;21.11;100.00
22653;BME280;11493;43.344;26.226;2022-07-29T00:18:45;99338.91;;;21.08;100.00
22653;BME280;11493;43.344;26.226;2022-07-29T00:21:12;99341.69;;;21.05;100.00
22653;BME280;11493;43.344;26.226;2022-07-29T00:23:39;99349.72;;;21.10;100.00
22653;BME280;11493;43.344;26.226;2022-07-29T00:26:07;99348.88;;;21.06;100.00
22653;BME280;11493;43.344;26.226;2022-07-29T00:28:34;99341.66;;;21.01;100.00
22653;BME280;11493;43.344;26.226;2022-07-29T00:31:06;99346.44;;;21.00;100.00
22653;BME280;11493;43.344;26.226;2022-07-29T00:33:38;99340.84;;;21.00;100.00
22653;BME280;11493;43.344;26.226;2022-07-29T00:36:06;99344.81;;;20.99;100.00
22653;BME280;11493;43.344;26.226;2022-07-29T00:38:33;99335.94;;;20.90;100.00
22653;BME280;11493;43.344;26.226;2022-07-29T00:41:00;99344.72;;;20.89;100.00
22653;BME280;11493;43.344;26.226;2022-07-29T00:43:28;99331.06;;;20.84;100.00
22653;BME280;11493;43.344;26.226;2022-07-29T00:45:55;99341.47;;;20.83;100.00
22653;BME280;11493;43.344;26.226;2022-07-29T00:48:22;99346.28;;;20.86;100.00
22653;BME280;11493;43.344;26.226;2022-07-29T00:50:51;99340.78;;;20.93;100.00
22653;BME280;11493;43.344;26.226;2022-07-29T00:53:19;99349.94;;;20.90;100.00
22653;BME280;11493;43.344;26.226;2022-07-29T00:55:50;99351.88;;;20.86;100.00
22653;BME280;11493;43.344;26.226;2022-07-29T00:58:31;99353.81;;;20.79;100.00
22653;BME280;11493;43.344;26.226;2022-07-29T01:01:03;99342.22;;;20.77;100.00
22653;BME280;11493;43.344;26.226;2022-07-29T01:03:30;99347.09;;;20.87;100.00
22653;BME280;11493;43.344;26.226;2022-07-29T01:05:57;99342.94;;;20.70;100.00
22653;BME280;11493;43.344;26.226;2022-07-29T01:08:25;99348.88;;;20.65;100.00
22653;BME280;11493;43.344;26.226;2022-07-29T01:10:53;99342.78;;;20.56;100.00
22653;BME280;11493;43.344;26.226;2022-07-29T01:13:27;99358.81;;;20.62;100.00
22653;BME280;11493;43.344;26.226;2022-07-29T01:16:21;99357.13;;;20.54;100.00
22653;BME280;11493;43.344;26.226;2022-07-29T01:18:49;99348.69;;;20.51;100.00
22653;BME280;11493;43.344;26.226;2022-07-29T01:21:33;99355.47;;;20.50;100.00
22653;BME280;11493;43.344;26.226;2022-07-29T01:27:07;99351.28;;;20.37;100.00
22653;BME280;11493;43.344;26.226;2022-07-29T01:29:49;99337.59;;;20.28;100.00
22653;BME280;11493;43.344;26.226;2022-07-29T01:32:23;99342.84;;;20.33;100.00
22653;BME280;11493;43.344;26.226;2022-07-29T01:35:00;99345.25;;;20.34;100.00
22653;BME280;11493;43.344;26.226;2022-07-29T01:40:49;99353.16;;;20.29;100.00
22653;BME280;11493;43.344;26.226;2022-07-29T01:43:30;99334.31;;;20.22;100.00
22653;BME280;11493;43.344;26.226;2022-07-29T01:46:06;99327.47;;;20.16;100.00
22653;BME280;11493;43.344;26.226;2022-07-29T01:48:43;99337.22;;;20.29;100.00
22653;BME280;11493;43.344;26.226;2022-07-29T01:51:24;99335.22;;;20.30;100.00
22653;BME280;11493;43.344;26.226;2022-07-29T01:54:07;99336.06;;;20.34;100.00
22653;BME280;11493;43.344;26.226;2022-07-29T01:56:36;99338.13;;;20.37;100.00
22653;BME280;11493;43.344;26.226;2022-07-29T01:59:07;99329.63;;;20.30;100.00
22653;BME280;11493;43.344;26.226;2022-07-29T02:01:48;99330.50;;;20.34;100.00
22653;BME280;11493;43.344;26.226;2022-07-29T02:04:24;99291.13;;;20.16;100.00
22653;BME280;11493;43.344;26.226;2022-07-29T02:07:03;99333.88;;;20.47;100.00
22653;BME280;11493;43.344;26.226;2022-07-29T02:09:36;99331.03;;;20.43;100.00
22653;BME280;11493;43.344;26.226;2022-07-29T02:12:05;99332.31;;;20.49;100.00
22653;BME280;11493;43.344;26.226;2022-07-29T02:14:38;99332.34;;;20.53;100.00
22653;BME280;11493;43.344;26.226;2022-07-29T02:17:06;99316.69;;;20.45;100.00
22653;BME280;11493;43.344;26.226;2022-07-29T02:19:36;99320.06;;;20.31;100.00
22653;BME280;11493;43.344;26.226;2022-07-29T02:22:05;99326.00;;;20.26;100.00
22653;BME280;11493;43.344;26.226;2022-07-29T02:24:38;99325.56;;;20.24;100.00
22653;BME280;11493;43.344;26.226;2022-07-29T02:27:12;99330.69;;;20.18;100.00
22653;BME280;11493;43.344;26.226;2022-07-29T02:29:48;99332.72;;;20.21;100.00
22653;BME280;11493;43.344;26.226;2022-07-29T02:32:26;99331.44;;;20.15;100.00
22653;BME280;11493;43.344;26.226;2022-07-29T02:34:58;99327.38;;;20.09;100.00
22653;BME280;11493;43.344;26.226;2022-07-29T02:37:27;99335.75;;;20.09;100.00
22653;BME280;11493;43.344;26.226;2022-07-29T02:39:57;99349.25;;;20.04;100.00
22653;BME280;11493;43.344;26.226;2022-07-29T02:42:26;99334.38;;;19.96;100.00
22653;BME280;11493;43.344;26.226;2022-07-29T02:44:55;99340.41;;;19.98;100.00
22653;BME280;11493;43.344;26.226;2022-07-29T02:47:39;99346.41;;;20.00;100.00
22653;BME280;11493;43.344;26.226;2022-07-29T02:50:20;99345.22;;;20.01;100.00
22653;BME280;11493;43.344;26.226;2022-07-29T02:53:09;99341.25;;;20.02;100.00
22653;BME280;11493;43.344;26.226;2022-07-29T02:55:56;99338.03;;;20.00;100.00
22653;BME280;11493;43.344;26.226;2022-07-29T02:58:27;99330.03;;;19.98;100.00
22653;BME280;11493;43.344;26.226;2022-07-29T03:01:06;99334.72;;;19.91;100.00
22653;BME280;11493;43.344;26.226;2022-07-29T03:03:37;99328.28;;;19.87;100.00
22653;BME280;11493;43.344;26.226;2022-07-29T03:06:07;99330.97;;;19.80;100.00
22653;BME280;11493;43.344;26.226;2022-07-29T03:08:56;99333.75;;;19.80;100.00
22653;BME280;11493;43.344;26.226;2022-07-29T03:11:25;99349.69;;;19.79;100.00
22653;BME280;11493;43.344;26.226;2022-07-29T03:14:18;99345.72;;;19.80;100.00
22653;BME280;11493;43.344;26.226;2022-07-29T03:16:48;99351.25;;;19.77;100.00
22653;BME280;11493;43.344;26.226;2022-07-29T03:19:45;99356.03;;;19.76;100.00
22653;BME280;11493;43.344;26.226;2022-07-29T03:22:13;99360.75;;;19.72;100.00
22653;BME280;11493;43.344;26.226;2022-07-29T03:24:44;99346.00;;;19.72;100.00
22653;BME280;11493;43.344;26.226;2022-07-29T03:27:13;99355.22;;;19.76;100.00
22653;BME280;11493;43.344;26.226;2022-07-29T03:29:40;99366.50;;;19.83;100.00
22653;BME280;11493;43.344;26.226;2022-07-29T03:32:16;99368.00;;;19.77;100.00
22653;BME280;11493;43.344;26.226;2022-07-29T03:34:52;99370.63;;;19.66;100.00
22653;BME280;11493;43.344;26.226;2022-07-29T03:37:22;99364.56;;;19.60;100.00
22653;BME280;11493;43.344;26.226;2022-07-29T03:39:51;99362.94;;;19.59;100.00
22653;BME280;11493;43.344;26.226;2022-07-29T03:42:20;99367.34;;;19.60;100.00
22653;BME280;11493;43.344;26.226;2022-07-29T03:44:55;99362.06;;;19.55;100.00
22653;BME280;11493;43.344;26.226;2022-07-29T03:47:27;99364.44;;;19.53;100.00
22653;BME280;11493;43.344;26.226;2022-07-29T03:50:16;99364.56;;;19.60;100.00
22653;BME280;11493;43.344;26.226;2022-07-29T03:52:45;99354.56;;;19.59;100.00
22653;BME280;11493;43.344;26.226;2022-07-29T03:55:15;99357.47;;;19.66;100.00
22653;BME280;11493;43.344;26.226;2022-07-29T03:57:49;99369.13;;;19.72;100.00
22653;BME280;11493;43.344;26.226;2022-07-29T04:00:25;99355.16;;;19.72;100.00
22653;BME280;11493;43.344;26.226;2022-07-29T04:03:01;99358.34;;;19.71;100.00
22653;BME280;11493;43.344;26.226;2022-07-29T04:05:38;99367.47;;;19.94;100.00
22653;BME280;11493;43.344;26.226;2022-07-29T04:08:05;99357.81;;;19.88;100.00
22653;BME280;11493;43.344;26.226;2022-07-29T04:10:33;99378.00;;;20.04;100.00
22653;BME280;11493;43.344;26.226;2022-07-29T04:13:01;99385.59;;;20.07;100.00
22653;BME280;11493;43.344;26.226;2022-07-29T04:15:29;99381.63;;;20.08;100.00
22653;BME280;11493;43.344;26.226;2022-07-29T04:17:58;99383.84;;;20.25;100.00
22653;BME280;11493;43.344;26.226;2022-07-29T04:20:26;99391.97;;;20.34;100.00
22653;BME280;11493;43.344;26.226;2022-07-29T04:22:57;99403.53;;;20.32;100.00
22653;BME280;11493;43.344;26.226;2022-07-29T04:25:24;99402.84;;;20.39;100.00
22653;BME280;11493;43.344;26.226;2022-07-29T04:27:51;99408.53;;;20.46;100.00
22653;BME280;11493;43.344;26.226;2022-07-29T04:30:30;99400.16;;;20.46;100.00
22653;BME280;11493;43.344;26.226;2022-07-29T04:32:58;99416.22;;;20.53;100.00
22653;BME280;11493;43.344;26.226;2022-07-29T04:35:28;99411.50;;;20.60;100.00
22653;BME280;11493;43.344;26.226;2022-07-29T04:38:05;99410.72;;;20.60;100.00
22653;BME280;11493;43.344;26.226;2022-07-29T04:40:41;99400.38;;;20.64;100.00
22653;BME280;11493;43.344;26.226;2022-07-29T04:43:08;99409.72;;;20.75;100.00
22653;BME280;11493;43.344;26.226;2022-07-29T04:45:45;99411.38;;;20.83;100.00
22653;BME280;11493;43.344;26.226;2022-07-29T04:48:14;99411.13;;;20.95;100.00
22653;BME280;11493;43.344;26.226;2022-07-29T04:50:45;99406.28;;;20.92;100.00
22653;BME280;11493;43.344;26.226;2022-07-29T04:53:13;99410.84;;;21.08;100.00
22653;BME280;11493;43.344;26.226;2022-07-29T04:55:42;99412.97;;;21.18;100.00
22653;BME280;11493;43.344;26.226;2022-07-29T04:58:09;99419.50;;;21.29;100.00
22653;BME280;11493;43.344;26.226;2022-07-29T05:00:40;99416.81;;;21.40;100.00
22653;BME280;11493;43.344;26.226;2022-07-29T05:03:12;99414.13;;;21.50;100.00
22653;BME280;11493;43.344;26.226;2022-07-29T05:05:39;99416.59;;;21.62;100.00
22653;BME280;11493;43.344;26.226;2022-07-29T05:08:07;99419.16;;;21.82;100.00
22653;BME280;11493;43.344;26.226;2022-07-29T05:10:34;99427.28;;;21.94;100.00
22653;BME280;11493;43.344;26.226;2022-07-29T05:13:11;99421.28;;;21.95;99.74
22653;BME280;11493;43.344;26.226;2022-07-29T05:15:39;99411.38;;;22.05;98.13
22653;BME280;11493;43.344;26.226;2022-07-29T05:18:06;99409.81;;;22.11;97.59
22653;BME280;11493;43.344;26.226;2022-07-29T05:20:34;99417.06;;;22.16;97.63
22653;BME280;11493;43.344;26.226;2022-07-29T05:23:01;99431.09;;;22.19;98.86
22653;BME280;11493;43.344;26.226;2022-07-29T05:25:29;99421.13;;;22.25;99.56
22653;BME280;11493;43.344;26.226;2022-07-29T05:28:11;99432.81;;;22.42;99.44
22653;BME280;11493;43.344;26.226;2022-07-29T05:30:38;99433.28;;;22.54;99.65
22653;BME280;11493;43.344;26.226;2022-07-29T05:33:06;99428.53;;;22.66;99.65
22653;BME280;11493;43.344;26.226;2022-07-29T05:35:33;99442.19;;;22.74;100.00
22653;BME280;11493;43.344;26.226;2022-07-29T05:38:01;99440.28;;;22.85;100.00
22653;BME280;11493;43.344;26.226;2022-07-29T05:40:29;99433.53;;;23.01;97.83
22653;BME280;11493;43.344;26.226;2022-07-29T05:42:56;99423.50;;;23.14;95.35
22653;BME280;11493;43.344;26.226;2022-07-29T05:45:23;99431.19;;;23.35;94.54
22653;BME280;11493;43.344;26.226;2022-07-29T05:47:51;99424.78;;;23.45;93.67
22653;BME280;11493;43.344;26.226;2022-07-29T05:50:18;99427.22;;;23.53;93.09
22653;BME280;11493;43.344;26.226;2022-07-29T05:52:45;99427.66;;;23.73;92.89
22653;BME280;11493;43.344;26.226;2022-07-29T05:55:15;99429.63;;;23.80;91.85
22653;BME280;11493;43.344;26.226;2022-07-29T05:57:43;99437.66;;;23.88;93.08
22653;BME280;11493;43.344;26.226;2022-07-29T06:00:11;99428.81;;;23.86;93.86
22653;BME280;11493;43.344;26.226;2022-07-29T06:02:39;99438.88;;;23.95;93.30
22653;BME280;11493;43.344;26.226;2022-07-29T06:05:06;99444.88;;;24.07;91.53
22653;BME280;11493;43.344;26.226;2022-07-29T06:07:42;99430.81;;;24.11;90.45
22653;BME280;11493;43.344;26.226;2022-07-29T06:10:17;99437.66;;;24.31;89.13
22653;BME280;11493;43.344;26.226;2022-07-29T06:12:50;99433.22;;;24.41;88.69
22653;BME280;11493;43.344;26.226;2022-07-29T06:15:17;99428.00;;;24.39;89.32
22653;BME280;11493;43.344;26.226;2022-07-29T06:17:45;99440.84;;;24.44;90.07
22653;BME280;11493;43.344;26.226;2022-07-29T06:20:27;99450.84;;;24.52;87.52
22653;BME280;11493;43.344;26.226;2022-07-29T06:22:57;99437.13;;;24.68;86.31
22653;BME280;11493;43.344;26.226;2022-07-29T06:25:24;99453.56;;;24.84;85.15
22653;BME280;11493;43.344;26.226;2022-07-29T06:27:52;99451.13;;;24.97;84.81
22653;BME280;11493;43.344;26.226;2022-07-29T06:30:19;99455.50;;;25.12;85.12
22653;BME280;11493;43.344;26.226;2022-07-29T06:32:46;99431.34;;;25.14;84.40
22653;BME280;11493;43.344;26.226;2022-07-29T06:35:14;99439.25;;;25.34;84.54
22653;BME280;11493;43.344;26.226;2022-07-29T06:38:02;99450.81;;;25.50;85.60
22653;BME280;11493;43.344;26.226;2022-07-29T06:40:42;99438.31;;;25.54;84.01
22653;BME280;11493;43.344;26.226;2022-07-29T06:43:33;99441.06;;;25.62;84.62
22653;BME280;11493;43.344;26.226;2022-07-29T06:46:18;99437.84;;;25.70;83.70
22653;BME280;11493;43.344;26.226;2022-07-29T06:48:46;99438.91;;;25.87;84.08
22653;BME280;11493;43.344;26.226;2022-07-29T06:51:18;99447.28;;;25.98;84.42
22653;BME280;11493;43.344;26.226;2022-07-29T06:53:48;99447.22;;;26.01;83.71
22653;BME280;11493;43.344;26.226;2022-07-29T06:56:33;99443.09;;;26.13;82.30
22653;BME280;11493;43.344;26.226;2022-07-29T06:59:07;99444.13;;;26.30;82.94
22653;BME280;11493;43.344;26.226;2022-07-29T07:01:40;99452.50;;;26.44;82.26
22653;BME280;11493;43.344;26.226;2022-07-29T07:04:10;99442.28;;;26.57;80.02
22653;BME280;11493;43.344;26.226;2022-07-29T07:06:38;99451.41;;;26.68;77.28
22653;BME280;11493;43.344;26.226;2022-07-29T07:09:06;99457.72;;;26.79;76.72
22653;BME280;11493;43.344;26.226;2022-07-29T07:11:34;99441.63;;;26.76;76.71
22653;BME280;11493;43.344;26.226;2022-07-29T07:14:01;99453.50;;;26.95;75.50
22653;BME280;11493;43.344;26.226;2022-07-29T07:16:31;99450.91;;;27.11;74.57
22653;BME280;11493;43.344;26.226;2022-07-29T07:18:59;99445.13;;;27.22;73.86
22653;BME280;11493;43.344;26.226;2022-07-29T07:21:26;99449.50;;;27.26;73.04
22653;BME280;11493;43.344;26.226;2022-07-29T07:23:57;99434.50;;;27.29;74.17
22653;BME280;11493;43.344;26.226;2022-07-29T07:26:25;99448.91;;;27.38;74.08
22653;BME280;11493;43.344;26.226;2022-07-29T07:28:52;99449.66;;;27.42;73.08
22653;BME280;11493;43.344;26.226;2022-07-29T07:31:22;99445.47;;;27.50;72.91
22653;BME280;11493;43.344;26.226;2022-07-29T07:33:49;99444.13;;;27.62;72.69
22653;BME280;11493;43.344;26.226;2022-07-29T07:36:18;99442.72;;;27.74;71.26
22653;BME280;11493;43.344;26.226;2022-07-29T07:38:46;99433.03;;;27.75;72.02
22653;BME280;11493;43.344;26.226;2022-07-29T07:41:13;99432.91;;;27.82;71.42
22653;BME280;11493;43.344;26.226;2022-07-29T07:43:40;99442.44;;;27.92;70.16
22653;BME280;11493;43.344;26.226;2022-07-29T07:46:07;99443.25;;;27.92;69.62
22653;BME280;11493;43.344;26.226;2022-07-29T07:48:35;99432.63;;;28.00;69.84
22653;BME280;11493;43.344;26.226;2022-07-29T07:51:03;99430.75;;;28.13;67.96
22653;BME280;11493;43.344;26.226;2022-07-29T07:53:30;99438.16;;;28.07;67.92
22653;BME280;11493;43.344;26.226;2022-07-29T07:55:58;99425.16;;;28.09;68.68
22653;BME280;11493;43.344;26.226;2022-07-29T07:58:41;99423.81;;;28.18;68.42
22653;BME280;11493;43.344;26.226;2022-07-29T08:01:08;99421.41;;;28.39;67.26
22653;BME280;11493;43.344;26.226;2022-07-29T08:03:36;99429.75;;;28.46;66.08
22653;BME280;11493;43.344;26.226;2022-07-29T08:06:04;99420.47;;;28.46;65.91
22653;BME280;11493;43.344;26.226;2022-07-29T08:08:32;99420.81;;;28.48;62.95
22653;BME280;11493;43.344;26.226;2022-07-29T08:10:59;99419.47;;;28.56;62.65
22653;BME280;11493;43.344;26.226;2022-07-29T08:13:35;99421.72;;;28.65;64.21
22653;BME280;11493;43.344;26.226;2022-07-29T08:16:03;99425.50;;;28.78;63.40
22653;BME280;11493;43.344;26.226;2022-07-29T08:18:41;99386.34;;;28.53;64.75
22653;BME280;11493;43.344;26.226;2022-07-29T08:21:09;99429.22;;;28.95;62.59
22653;BME280;11493;43.344;26.226;2022-07-29T08:23:41;99429.31;;;29.07;58.87
22653;BME280;11493;43.344;26.226;2022-07-29T08:26:27;99425.69;;;29.07;55.64
22653;BME280;11493;43.344;26.226;2022-07-29T08:28:55;99432.00;;;29.15;56.85
22653;BME280;11493;43.344;26.226;2022-07-29T08:31:22;99426.09;;;29.25;56.16
22653;BME280;11493;43.344;26.226;2022-07-29T08:33:50;99419.13;;;29.30;54.51
22653;BME280;11493;43.344;26.226;2022-07-29T08:36:18;99417.81;;;29.34;55.42
22653;BME280;11493;43.344;26.226;2022-07-29T08:38:48;99430.59;;;29.42;55.06
22653;BME280;11493;43.344;26.226;2022-07-29T08:41:20;99415.69;;;29.38;54.39
22653;BME280;11493;43.344;26.226;2022-07-29T08:43:49;99422.81;;;29.47;54.32
22653;BME280;11493;43.344;26.226;2022-07-29T08:46:17;99422.81;;;29.47;52.48
22653;BME280;11493;43.344;26.226;2022-07-29T08:48:45;99418.03;;;29.43;53.36
22653;BME280;11493;43.344;26.226;2022-07-29T08:51:14;99421.50;;;29.51;53.09
22653;BME280;11493;43.344;26.226;2022-07-29T08:53:44;99417.34;;;29.56;52.35
22653;BME280;11493;43.344;26.226;2022-07-29T08:56:12;99407.34;;;29.67;53.08
22653;BME280;11493;43.344;26.226;2022-07-29T08:58:47;99398.38;;;29.69;53.93
22653;BME280;11493;43.344;26.226;2022-07-29T09:01:24;99404.06;;;29.69;52.84
22653;BME280;11493;43.344;26.226;2022-07-29T09:04:12;99389.97;;;29.65;53.72
22653;BME280;11493;43.344;26.226;2022-07-29T09:06:46;99395.59;;;29.82;53.52
22653;BME280;11493;43.344;26.226;2022-07-29T09:09:15;99391.59;;;29.95;53.83
22653;BME280;11493;43.344;26.226;2022-07-29T09:11:42;99393.41;;;30.05;52.85
22653;BME280;11493;43.344;26.226;2022-07-29T09:14:13;99394.09;;;30.10;53.06
22653;BME280;11493;43.344;26.226;2022-07-29T09:16:55;99395.69;;;30.11;51.95
22653;BME280;11493;43.344;26.226;2022-07-29T09:19:25;99395.41;;;30.21;51.85
22653;BME280;11493;43.344;26.226;2022-07-29T09:21:54;99397.63;;;30.30;51.25
22653;BME280;11493;43.344;26.226;2022-07-29T09:24:43;99409.69;;;30.34;51.85
22653;BME280;11493;43.344;26.226;2022-07-29T09:29:44;99393.63;;;30.27;50.56
22653;BME280;11493;43.344;26.226;2022-07-29T09:32:11;99390.28;;;30.16;50.40
22653;BME280;11493;43.344;26.226;2022-07-29T09:34:39;99382.66;;;30.13;51.35
22653;BME280;11493;43.344;26.226;2022-07-29T09:37:08;99374.31;;;30.22;50.95
22653;BME280;11493;43.344;26.226;2022-07-29T09:39:37;99376.84;;;30.33;49.75
22653;BME280;11493;43.344;26.226;2022-07-29T09:42:12;99379.59;;;30.36;50.29
22653;BME280;11493;43.344;26.226;2022-07-29T09:44:47;99383.84;;;30.45;49.25
22653;BME280;11493;43.344;26.226;2022-07-29T09:47:17;99383.94;;;30.41;50.48
22653;BME280;11493;43.344;26.226;2022-07-29T09:49:56;99383.47;;;30.43;49.67
22653;BME280;11493;43.344;26.226;2022-07-29T09:52:26;99369.38;;;30.39;50.00
22653;BME280;11493;43.344;26.226;2022-07-29T09:55:05;99374.28;;;30.51;50.74
22653;BME280;11493;43.344;26.226;2022-07-29T09:57:32;99376.94;;;30.58;49.47
22653;BME280;11493;43.344;26.226;2022-07-29T10:00:02;99385.47;;;30.58;49.50
22653;BME280;11493;43.344;26.226;2022-07-29T10:02:39;99369.22;;;30.59;48.79
22653;BME280;11493;43.344;26.226;2022-07-29T10:05:17;99379.25;;;30.63;48.35
22653;BME280;11493;43.344;26.226;2022-07-29T10:07:54;99374.28;;;30.51;48.52
22653;BME280;11493;43.344;26.226;2022-07-29T10:10:29;99367.97;;;30.60;49.43
22653;BME280;11493;43.344;26.226;2022-07-29T10:17:25;99369.16;;;30.75;47.99
22653;BME280;11493;43.344;26.226;2022-07-29T10:19:53;99355.00;;;30.88;48.26
22653;BME280;11493;43.344;26.226;2022-07-29T10:22:20;99353.63;;;30.92;48.26
22653;BME280;11493;43.344;26.226;2022-07-29T10:25:09;99346.81;;;31.02;48.12
22653;BME280;11493;43.344;26.226;2022-07-29T10:27:37;99363.19;;;31.11;47.65
22653;BME280;11493;43.344;26.226;2022-07-29T10:30:05;99349.00;;;31.11;47.60
22653;BME280;11493;43.344;26.226;2022-07-29T10:44:43;99348.75;;;31.44;44.49
22653;BME280;11493;43.344;26.226;2022-07-29T10:47:25;99337.84;;;31.42;44.83
22653;BME280;11493;43.344;26.226;2022-07-29T10:50:03;99331.59;;;31.47;45.08
22653;BME280;11493;43.344;26.226;2022-07-29T10:55:46;99321.44;;;31.59;45.26
22653;BME280;11493;43.344;26.226;2022-07-29T10:58:22;99332.03;;;31.71;44.21
22653;BME280;11493;43.344;26.226;2022-07-29T11:00:52;99324.84;;;31.79;43.72
22653;BME280;11493;43.344;26.226;2022-07-29T11:03:42;99328.69;;;31.85;42.89
22653;BME280;11493;43.344;26.226;2022-07-29T11:06:17;99326.69;;;31.73;42.72
22653;BME280;11493;43.344;26.226;2022-07-29T11:09:17;99317.69;;;31.75;42.23
22653;BME280;11493;43.344;26.226;2022-07-29T11:12:45;99317.09;;;31.80;43.46
22653;BME280;11493;43.344;26.226;2022-07-29T11:14:59;99303.00;;;31.76;42.19
22653;BME280;11493;43.344;26.226;2022-07-29T11:20:37;99316.66;;;32.03;40.94
22653;BME280;11493;43.344;26.226;2022-07-29T11:23:29;99312.56;;;32.04;39.64
22653;BME280;11493;43.344;26.226;2022-07-29T11:29:03;99306.47;;;31.93;39.52
22653;BME280;11493;43.344;26.226;2022-07-29T11:31:40;99305.06;;;31.97;39.49
22653;BME280;11493;43.344;26.226;2022-07-29T11:47:57;99278.91;;;32.24;38.31
22653;BME280;11493;43.344;26.226;2022-07-29T11:50:35;99285.06;;;32.23;37.23
22653;BME280;11493;43.344;26.226;2022-07-29T11:53:11;99269.97;;;32.35;37.23
22653;BME280;11493;43.344;26.226;2022-07-29T11:55:40;99274.47;;;32.45;37.99
22653;BME280;11493;43.344;26.226;2022-07-29T11:58:24;99272.88;;;32.44;38.29
22653;BME280;11493;43.344;26.226;2022-07-29T12:00:52;99270.09;;;32.53;36.69
22653;BME280;11493;43.344;26.226;2022-07-29T12:03:26;99257.84;;;32.44;36.37
22653;BME280;11493;43.344;26.226;2022-07-29T12:06:02;99266.63;;;32.58;37.50
22653;BME280;11493;43.344;26.226;2022-07-29T12:08:40;99251.53;;;32.49;37.16
22653;BME280;11493;43.344;26.226;2022-07-29T12:11:15;99237.19;;;32.30;36.13
22653;BME280;11493;43.344;26.226;2022-07-29T12:13:47;99253.19;;;32.59;35.32
22653;BME280;11493;43.344;26.226;2022-07-29T12:16:15;99253.66;;;32.57;36.33
22653;BME280;11493;43.344;26.226;2022-07-29T12:19:00;99238.16;;;32.58;35.66
22653;BME280;11493;43.344;26.226;2022-07-29T12:21:42;99248.00;;;32.66;35.15
22653;BME280;11493;43.344;26.226;2022-07-29T12:24:20;99237.88;;;32.65;35.17
22653;BME280;11493;43.344;26.226;2022-07-29T12:26:58;99242.31;;;32.66;34.89
22653;BME280;11493;43.344;26.226;2022-07-29T12:29:26;99239.69;;;32.81;35.34
22653;BME280;11493;43.344;26.226;2022-07-29T12:32:02;99215.69;;;32.70;35.34
22653;BME280;11493;43.344;26.226;2022-07-29T12:34:32;99246.78;;;32.77;35.74
22653;BME280;11493;43.344;26.226;2022-07-29T12:37:00;99246.03;;;32.85;35.25
22653;BME280;11493;43.344;26.226;2022-07-29T12:39:28;99226.09;;;32.85;35.48
22653;BME280;11493;43.344;26.226;2022-07-29T12:41:56;99234.06;;;32.99;36.08
22653;BME280;11493;43.344;26.226;2022-07-29T12:44:50;99233.75;;;33.07;37.29
22653;BME280;11493;43.344;26.226;2022-07-29T12:47:19;99217.31;;;33.11;35.58
22653;BME280;11493;43.344;26.226;2022-07-29T12:49:48;99230.97;;;33.25;36.44
22653;BME280;11493;43.344;26.226;2022-07-29T12:54:55;99214.66;;;33.25;35.88
22653;BME280;11493;43.344;26.226;2022-07-29T12:57:23;99213.75;;;33.28;35.25
22653;BME280;11493;43.344;26.226;2022-07-29T13:00:21;99215.94;;;33.43;35.68
22653;BME280;11493;43.344;26.226;2022-07-29T13:02:59;99222.16;;;33.41;35.41
22653;BME280;11493;43.344;26.226;2022-07-29T13:05:53;99209.28;;;33.46;36.04
22653;BME280;11493;43.344;26.226;2022-07-29T13:08:20;99199.97;;;33.54;35.84
22653;BME280;11493;43.344;26.226;2022-07-29T13:10:49;99203.13;;;33.66;35.50
22653;BME280;11493;43.344;26.226;2022-07-29T13:13:16;99212.00;;;33.68;35.46
22653;BME280;11493;43.344;26.226;2022-07-29T13:15:45;99195.34;;;33.48;35.70
22653;BME280;11493;43.344;26.226;2022-07-29T13:18:32;99199.81;;;33.58;35.88
22653;BME280;11493;43.344;26.226;2022-07-29T13:21:11;99183.47;;;33.49;34.62
22653;BME280;11493;43.344;26.226;2022-07-29T13:23:40;99176.34;;;33.36;35.28
22653;BME280;11493;43.344;26.226;2022-07-29T13:26:08;99193.78;;;33.56;35.67
22653;BME280;11493;43.344;26.226;2022-07-29T13:28:36;99180.31;;;33.66;35.59
22653;BME280;11493;43.344;26.226;2022-07-29T13:31:04;99190.75;;;33.78;34.56
22653;BME280;11493;43.344;26.226;2022-07-29T13:33:32;99182.53;;;33.89;35.31
22653;BME280;11493;43.344;26.226;2022-07-29T13:36:00;99169.53;;;33.88;34.42
22653;BME280;11493;43.344;26.226;2022-07-29T13:38:28;99190.28;;;34.07;35.87
22653;BME280;11493;43.344;26.226;2022-07-29T13:40:57;99186.00;;;34.11;35.19
22653;BME280;11493;43.344;26.226;2022-07-29T13:43:25;99179.13;;;34.18;35.70
22653;BME280;11493;43.344;26.226;2022-07-29T13:45:53;99174.69;;;34.26;35.55
22653;BME280;11493;43.344;26.226;2022-07-29T13:48:21;99170.72;;;34.23;35.07
22653;BME280;11493;43.344;26.226;2022-07-29T13:50:48;99165.78;;;34.24;35.18
22653;BME280;11493;43.344;26.226;2022-07-29T13:53:16;99172.16;;;34.19;34.60
22653;BME280;11493;43.344;26.226;2022-07-29T13:55:47;99167.13;;;34.14;35.13
22653;BME280;11493;43.344;26.226;2022-07-29T13:58:17;99157.31;;;33.78;35.86
22653;BME280;11493;43.344;26.226;2022-07-29T14:00:45;99169.38;;;34.01;35.68
22653;BME280;11493;43.344;26.226;2022-07-29T14:03:17;99168.41;;;34.04;35.66